sensor_id;sensor_type;location;lat;lon;timestamp;temperature;humidity
19654;DHT22;9975;48.046;7.804;2023-03-01T01:56:59;-3.20;99.90
19654;DHT22;9975;48.046;7.804;2023-03-01T01:59:26;-3.20;99.90
19654;DHT22;9975;48.046;7.804;2023-03-01T02:01:53;-3.20;99.90
19654;DHT22;9975;48.046;7.804;2023-03-01T02:04:21;-3.20;99.90
19654;DHT22;9975;48.046;7.804;2023-03-01T02:07:17;-3.30;99.90
19654;DHT22;9975;48.046;7.804;2023-03-01T02:09:47;-3.30;99.90
19654;DHT22;9975;48.046;7.804;2023-03-01T02:12:16;-3.20;99.90
19654;DHT22;9975;48.046;7.804;2023-03-01T02:14:43;-3.20;99.90
19654;DHT22;9975;48.046;7.804;2023-03-01T02:17:10;-3.30;99.90
19654;DHT22;9975;48.046;7.804;2023-03-01T02:22:38;-3.20;99.90
19654;DHT22;9975;48.046;7.804;2023-03-01T02:25:55;-3.20;99.90
19654;DHT22;9975;48.046;7.804;2023-03-01T02:30:55;-3.30;99.90
19654;DHT22;9975;48.046;7.804;2023-03-01T02:33:39;-3.40;99.90
19654;DHT22;9975;48.046;7.804;2023-03-01T02:36:12;-3.30;99.90
19654;DHT22;9975;48.046;7.804;2023-03-01T02:38:41;-3.40;99.90
19654;DHT22;9975;48.046;7.804;2023-03-01T02:41:08;-3.40;99.90
19654;DHT22;9975;48.046;7.804;2023-03-01T02:43:35;-3.30;99.90
19654;DHT22;9975;48.046;7.804;2023-03-01T02:46:13;-3.30;99.90
19654;DHT22;9975;48.046;7.804;2023-03-01T02:48:45;-3.30;99.90
19654;DHT22;9975;48.046;7.804;2023-03-01T02:56:20;-3.20;99.90
19654;DHT22;9975;48.046;7.804;2023-03-01T02:58:46;-3.20;99.90
19654;DHT22;9975;48.046;7.804;2023-03-01T03:01:17;-3.30;99.90
19654;DHT22;9975;48.046;7.804;2023-03-01T03:03:43;-3.20;99.90
19654;DHT22;9975;48.046;7.804;2023-03-01T03:06:09;-3.30;99.90
19654;DHT22;9975;48.046;7.804;2023-03-01T03:08:34;-3.20;99.90
19654;DHT22;9975;48.046;7.804;2023-03-01T03:11:00;-3.20;99.90
19654;DHT22;9975;48.046;7.804;2023-03-01T03:13:26;-3.20;99.90
19654;DHT22;9975;48.046;7.804;2023-03-01T03:15:54;-3.20;99.90
19654;DHT22;9975;48.046;7.804;2023-03-01T03:18:21;-3.20;99.90
19654;DHT22;9975;48.046;7.804;2023-03-01T03:20:47;-3.30;99.90
19654;DHT22;9975;48.046;7.804;2023-03-01T03:23:18;-3.30;99.90
19654;DHT22;9975;48.046;7.804;2023-03-01T03:28:10;-3.30;99.90
19654;DHT22;9975;48.046;7.804;2023-03-01T03:30:39;-3.30;99.90
19654;DHT22;9975;48.046;7.804;2023-03-01T03:33:05;-3.30;99.90
19654;DHT22;9975;48.046;7.804;2023-03-01T03:35:45;-3.30;99.90
19654;DHT22;9975;48.046;7.804;2023-03-01T03:38:13;-3.40;99.90
19654;DHT22;9975;48.046;7.804;2023-03-01T03:40:47;-3.40;99.90
19654;DHT22;9975;48.046;7.804;2023-03-01T03:43:16;-3.50;99.90
19654;DHT22;9975;48.046;7.804;2023-03-01T03:45:44;-3.40;99.90
19654;DHT22;9975;48.046;7.804;2023-03-01T03:48:11;-3.30;99.90
19654;DHT22;9975;48.046;7.804;2023-03-01T03:50:38;-3.30;99.90
19654;DHT22;9975;48.046;7.804;2023-03-01T03:53:08;-3.40;99.90
19654;DHT22;9975;48.046;7.804;2023-03-01T03:55:34;-3.30;99.90
19654;DHT22;9975;48.046;7.804;2023-03-01T03:58:02;-3.40;99.90
19654;DHT22;9975;48.046;7.804;2023-03-01T04:00:33;-3.40;99.90
19654;DHT22;9975;48.046;7.804;2023-03-01T04:02:59;-3.50;99.90
19654;DHT22;9975;48.046;7.804;2023-03-01T04:05:26;-3.50;99.90
19654;DHT22;9975;48.046;7.804;2023-03-01T04:07:52;-3.50;99.90
19654;DHT22;9975;48.046;7.804;2023-03-01T04:10:27;-3.50;99.90
19654;DHT22;9975;48.046;7.804;2023-03-01T04:12:52;-3.50;99.90
19654;DHT22;9975;48.046;7.804;2023-03-01T04:15:18;-3.50;99.90
19654;DHT22;9975;48.046;7.804;2023-03-01T04:17:45;-3.50;99.90
19654;DHT22;9975;48.046;7.804;2023-03-01T04:20:17;-3.40;99.90
19654;DHT22;9975;48.046;7.804;2023-03-01T04:22:44;-3.40;99.90
19654;DHT22;9975;48.046;7.804;2023-03-01T04:25:13;-3.50;99.90
19654;DHT22;9975;48.046;7.804;2023-03-01T04:27:40;-3.50;99.90
19654;DHT22;9975;48.046;7.804;2023-03-01T04:30:06;-3.30;99.90
19654;DHT22;9975;48.046;7.804;2023-03-01T04:32:32;-3.40;99.90
19654;DHT22;9975;48.046;7.804;2023-03-01T04:34:58;-3.40;99.90
19654;DHT22;9975;48.046;7.804;2023-03-01T04:37:24;-3.40;99.90
19654;DHT22;9975;48.046;7.804;2023-03-01T04:39:50;-3.40;99.90
19654;DHT22;9975;48.046;7.804;2023-03-01T04:42:16;-3.40;99.90
19654;DHT22;9975;48.046;7.804;2023-03-01T04:44:42;-3.30;99.90
19654;DHT22;9975;48.046;7.804;2023-03-01T04:47:08;-3.20;99.90
19654;DHT22;9975;48.046;7.804;2023-03-01T04:49:34;-3.20;99.90
19654;DHT22;9975;48.046;7.804;2023-03-01T04:51:59;-3.20;99.90
19654;DHT22;9975;48.046;7.804;2023-03-01T04:54:28;-3.00;99.90
19654;DHT22;9975;48.046;7.804;2023-03-01T04:56:54;-3.00;99.90
19654;DHT22;9975;48.046;7.804;2023-03-01T04:59:20;-2.90;99.90
19654;DHT22;9975;48.046;7.804;2023-03-01T05:01:48;-2.90;99.90
19654;DHT22;9975;48.046;7.804;2023-03-01T05:04:14;-2.80;99.90
19654;DHT22;9975;48.046;7.804;2023-03-01T05:06:40;-2.80;99.90
19654;DHT22;9975;48.046;7.804;2023-03-01T05:09:05;-2.80;99.90
19654;DHT22;9975;48.046;7.804;2023-03-01T05:11:31;-2.90;99.90
19654;DHT22;9975;48.046;7.804;2023-03-01T05:14:02;-2.80;99.90
19654;DHT22;9975;48.046;7.804;2023-03-01T05:16:27;-2.80;99.90
19654;DHT22;9975;48.046;7.804;2023-03-01T05:18:53;-2.70;99.90
19654;DHT22;9975;48.046;7.804;2023-03-01T05:21:21;-2.70;99.90
19654;DHT22;9975;48.046;7.804;2023-03-01T05:23:46;-2.70;99.90
19654;DHT22;9975;48.046;7.804;2023-03-01T05:26:12;-2.70;99.90
19654;DHT22;9975;48.046;7.804;2023-03-01T05:28:38;-2.60;99.90
19654;DHT22;9975;48.046;7.804;2023-03-01T05:31:05;-2.60;99.90
19654;DHT22;9975;48.046;7.804;2023-03-01T05:33:36;-2.60;99.90
19654;DHT22;9975;48.046;7.804;2023-03-01T05:36:02;-2.50;99.90
19654;DHT22;9975;48.046;7.804;2023-03-01T05:38:28;-2.40;99.90
19654;DHT22;9975;48.046;7.804;2023-03-01T05:40:53;-2.40;99.90
19654;DHT22;9975;48.046;7.804;2023-03-01T05:43:19;-2.40;99.90
19654;DHT22;9975;48.046;7.804;2023-03-01T05:45:45;0.60;99.90
19654;DHT22;9975;48.046;7.804;2023-03-01T05:48:11;-2.20;99.90
19654;DHT22;9975;48.046;7.804;2023-03-01T05:50:40;-2.20;99.90
19654;DHT22;9975;48.046;7.804;2023-03-01T05:53:12;-2.20;99.90
19654;DHT22;9975;48.046;7.804;2023-03-01T05:55:39;-2.20;99.90
19654;DHT22;9975;48.046;7.804;2023-03-01T05:58:07;-2.20;99.90
19654;DHT22;9975;48.046;7.804;2023-03-01T06:00:34;-2.20;99.90
19654;DHT22;9975;48.046;7.804;2023-03-01T06:03:01;-2.10;99.90
19654;DHT22;9975;48.046;7.804;2023-03-01T06:05:27;-2.10;99.90
19654;DHT22;9975;48.046;7.804;2023-03-01T06:07:53;-2.10;99.90
19654;DHT22;9975;48.046;7.804;2023-03-01T06:10:21;-2.10;99.90
19654;DHT22;9975;48.046;7.804;2023-03-01T06:12:47;-2.00;99.90
19654;DHT22;9975;48.046;7.804;2023-03-01T06:15:14;-2.00;99.90
19654;DHT22;9975;48.046;7.804;2023-03-01T06:17:43;-2.00;99.90
19654;DHT22;9975;48.046;7.804;2023-03-01T06:20:11;-2.00;99.90
19654;DHT22;9975;48.046;7.804;2023-03-01T06:22:37;-1.90;99.90
19654;DHT22;9975;48.046;7.804;2023-03-01T06:25:03;-1.90;99.90
19654;DHT22;9975;48.046;7.804;2023-03-01T06:27:28;-1.80;99.90
19654;DHT22;9975;48.046;7.804;2023-03-01T06:29:55;-1.80;99.90
19654;DHT22;9975;48.046;7.804;2023-03-01T06:32:20;-1.80;99.90
19654;DHT22;9975;48.046;7.804;2023-03-01T06:34:46;-1.80;99.90
19654;DHT22;9975;48.046;7.804;2023-03-01T06:37:12;-1.80;99.90
19654;DHT22;9975;48.046;7.804;2023-03-01T06:39:37;-1.80;99.90
19654;DHT22;9975;48.046;7.804;2023-03-01T06:42:03;-1.80;99.90
19654;DHT22;9975;48.046;7.804;2023-03-01T06:44:31;-1.70;99.90
19654;DHT22;9975;48.046;7.804;2023-03-01T06:46:57;-1.70;99.90
19654;DHT22;9975;48.046;7.804;2023-03-01T06:49:22;-1.60;99.90
19654;DHT22;9975;48.046;7.804;2023-03-01T06:51:48;-1.50;99.90
19654;DHT22;9975;48.046;7.804;2023-03-01T06:54:13;-1.60;99.90
19654;DHT22;9975;48.046;7.804;2023-03-01T06:56:39;-1.60;99.90
19654;DHT22;9975;48.046;7.804;2023-03-01T06:59:05;-1.40;99.90
19654;DHT22;9975;48.046;7.804;2023-03-01T07:01:30;-1.40;99.90
19654;DHT22;9975;48.046;7.804;2023-03-01T07:03:56;-1.60;99.90
19654;DHT22;9975;48.046;7.804;2023-03-01T07:06:22;-1.50;99.90
19654;DHT22;9975;48.046;7.804;2023-03-01T07:08:48;-1.40;99.90
19654;DHT22;9975;48.046;7.804;2023-03-01T07:11:14;-1.50;99.90
19654;DHT22;9975;48.046;7.804;2023-03-01T07:13:39;-1.40;99.90
19654;DHT22;9975;48.046;7.804;2023-03-01T07:16:05;-1.40;99.90
19654;DHT22;9975;48.046;7.804;2023-03-01T07:18:31;-1.40;99.90
19654;DHT22;9975;48.046;7.804;2023-03-01T07:20:57;-1.30;99.90
19654;DHT22;9975;48.046;7.804;2023-03-01T07:23:22;-1.40;99.90
19654;DHT22;9975;48.046;7.804;2023-03-01T07:25:53;-1.40;99.90
19654;DHT22;9975;48.046;7.804;2023-03-01T07:28:18;-1.20;99.90
19654;DHT22;9975;48.046;7.804;2023-03-01T07:30:44;-1.20;99.90
19654;DHT22;9975;48.046;7.804;2023-03-01T07:33:10;-1.30;99.90
19654;DHT22;9975;48.046;7.804;2023-03-01T07:35:35;-1.20;99.90
19654;DHT22;9975;48.046;7.804;2023-03-01T07:38:01;-1.10;99.90
19654;DHT22;9975;48.046;7.804;2023-03-01T07:40:27;-1.10;99.90
19654;DHT22;9975;48.046;7.804;2023-03-01T07:42:56;-1.10;99.90
19654;DHT22;9975;48.046;7.804;2023-03-01T07:45:23;-1.10;99.90
19654;DHT22;9975;48.046;7.804;2023-03-01T07:47:53;-1.00;99.90
19654;DHT22;9975;48.046;7.804;2023-03-01T07:50:19;-1.10;99.90
19654;DHT22;9975;48.046;7.804;2023-03-01T07:52:46;-1.00;99.90
19654;DHT22;9975;48.046;7.804;2023-03-01T07:55:12;-1.00;99.90
19654;DHT22;9975;48.046;7.804;2023-03-01T07:57:38;-1.00;99.90
19654;DHT22;9975;48.046;7.804;2023-03-01T08:00:04;-0.90;99.90
19654;DHT22;9975;48.046;7.804;2023-03-01T08:02:31;-0.80;99.90
19654;DHT22;9975;48.046;7.804;2023-03-01T08:04:57;-0.80;99.90
19654;DHT22;9975;48.046;7.804;2023-03-01T08:09:48;-0.60;99.90
19654;DHT22;9975;48.046;7.804;2023-03-01T08:12:14;-0.60;99.90
19654;DHT22;9975;48.046;7.804;2023-03-01T08:14:41;-0.40;99.90
19654;DHT22;9975;48.046;7.804;2023-03-01T08:19:33;-0.40;99.90
19654;DHT22;9975;48.046;7.804;2023-03-01T08:22:01;-0.30;99.90
19654;DHT22;9975;48.046;7.804;2023-03-01T08:24:27;-0.40;99.90
19654;DHT22;9975;48.046;7.804;2023-03-01T08:26:53;-0.20;99.90
19654;DHT22;9975;48.046;7.804;2023-03-01T08:29:18;-0.20;99.90
19654;DHT22;9975;48.046;7.804;2023-03-01T08:31:44;-0.20;99.90
19654;DHT22;9975;48.046;7.804;2023-03-01T08:34:12;-0.20;99.90
19654;DHT22;9975;48.046;7.804;2023-03-01T08:36:41;-0.10;99.90
19654;DHT22;9975;48.046;7.804;2023-03-01T08:39:09;-0.20;99.90
19654;DHT22;9975;48.046;7.804;2023-03-01T08:41:35;0.00;99.90
19654;DHT22;9975;48.046;7.804;2023-03-01T08:44:01;0.00;99.90
19654;DHT22;9975;48.046;7.804;2023-03-01T08:46:33;0.20;99.90
19654;DHT22;9975;48.046;7.804;2023-03-01T08:48:58;0.30;99.90
19654;DHT22;9975;48.046;7.804;2023-03-01T08:51:25;0.30;99.90
19654;DHT22;9975;48.046;7.804;2023-03-01T08:53:52;0.30;99.90
19654;DHT22;9975;48.046;7.804;2023-03-01T08:56:18;0.40;99.90
19654;DHT22;9975;48.046;7.804;2023-03-01T08:58:46;0.40;99.90
19654;DHT22;9975;48.046;7.804;2023-03-01T09:01:17;0.70;99.90
19654;DHT22;9975;48.046;7.804;2023-03-01T09:03:43;0.70;99.90
19654;DHT22;9975;48.046;7.804;2023-03-01T09:06:10;0.70;99.90
19654;DHT22;9975;48.046;7.804;2023-03-01T09:08:40;0.70;99.90
19654;DHT22;9975;48.046;7.804;2023-03-01T09:11:08;0.70;99.90
19654;DHT22;9975;48.046;7.804;2023-03-01T09:13:34;0.80;99.90
19654;DHT22;9975;48.046;7.804;2023-03-01T09:16:04;0.80;99.90
19654;DHT22;9975;48.046;7.804;2023-03-01T09:18:30;1.00;99.90
19654;DHT22;9975;48.046;7.804;2023-03-01T09:21:14;2.40;99.90
19654;DHT22;9975;48.046;7.804;2023-03-01T09:23:42;0.80;99.90
19654;DHT22;9975;48.046;7.804;2023-03-01T09:26:10;1.10;99.90
19654;DHT22;9975;48.046;7.804;2023-03-01T09:28:37;1.20;99.90
19654;DHT22;9975;48.046;7.804;2023-03-01T09:31:03;1.50;99.90
19654;DHT22;9975;48.046;7.804;2023-03-01T09:33:30;1.30;99.90
19654;DHT22;9975;48.046;7.804;2023-03-01T09:36:01;1.40;99.90
19654;DHT22;9975;48.046;7.804;2023-03-01T09:38:27;1.60;99.90
19654;DHT22;9975;48.046;7.804;2023-03-01T09:40:52;1.80;99.90
19654;DHT22;9975;48.046;7.804;2023-03-01T09:43:29;1.90;99.90
19654;DHT22;9975;48.046;7.804;2023-03-01T09:46:03;1.80;99.90
19654;DHT22;9975;48.046;7.804;2023-03-01T09:48:37;2.00;99.90
19654;DHT22;9975;48.046;7.804;2023-03-01T09:51:12;2.10;99.90
19654;DHT22;9975;48.046;7.804;2023-03-01T09:53:40;2.10;99.90
19654;DHT22;9975;48.046;7.804;2023-03-01T09:56:24;2.20;99.90
19654;DHT22;9975;48.046;7.804;2023-03-01T10:01:55;2.30;99.90
19654;DHT22;9975;48.046;7.804;2023-03-01T10:04:45;2.30;99.90
19654;DHT22;9975;48.046;7.804;2023-03-01T10:09:45;2.60;99.90
19654;DHT22;9975;48.046;7.804;2023-03-01T10:12:18;2.60;99.90
19654;DHT22;9975;48.046;7.804;2023-03-01T10:15:09;5.40;99.90
19654;DHT22;9975;48.046;7.804;2023-03-01T10:20:18;2.90;99.00
19654;DHT22;9975;48.046;7.804;2023-03-01T10:23:01;3.20;98.60
19654;DHT22;9975;48.046;7.804;2023-03-01T10:28:26;3.50;97.80
19654;DHT22;9975;48.046;7.804;2023-03-01T10:30:53;3.70;97.30
19654;DHT22;9975;48.046;7.804;2023-03-01T10:33:32;4.20;95.90
19654;DHT22;9975;48.046;7.804;2023-03-01T10:35:58;4.20;96.10
19654;DHT22;9975;48.046;7.804;2023-03-01T10:38:24;5.10;95.40
19654;DHT22;9975;48.046;7.804;2023-03-01T10:40:56;5.00;95.70
19654;DHT22;9975;48.046;7.804;2023-03-01T10:46:30;6.10;92.30
19654;DHT22;9975;48.046;7.804;2023-03-01T10:51:44;5.90;85.20
19654;DHT22;9975;48.046;7.804;2023-03-01T10:54:36;6.00;85.90
19654;DHT22;9975;48.046;7.804;2023-03-01T10:57:04;6.20;86.30
19654;DHT22;9975;48.046;7.804;2023-03-01T11:04:27;5.60;85.90
19654;DHT22;9975;48.046;7.804;2023-03-01T11:07:00;6.10;87.10
19654;DHT22;9975;48.046;7.804;2023-03-01T11:09:31;6.70;82.30
19654;DHT22;9975;48.046;7.804;2023-03-01T11:12:04;6.80;82.50
19654;DHT22;9975;48.046;7.804;2023-03-01T11:14:36;7.30;81.40
19654;DHT22;9975;48.046;7.804;2023-03-01T11:17:49;7.20;81.30
19654;DHT22;9975;48.046;7.804;2023-03-01T11:22:27;7.40;75.70
19654;DHT22;9975;48.046;7.804;2023-03-01T11:24:55;7.50;76.30
19654;DHT22;9975;48.046;7.804;2023-03-01T11:27:24;7.40;75.80
19654;DHT22;9975;48.046;7.804;2023-03-01T11:35:40;7.00;74.10
19654;DHT22;9975;48.046;7.804;2023-03-01T11:38:19;7.50;75.10
19654;DHT22;9975;48.046;7.804;2023-03-01T11:40:58;8.20;73.60
19654;DHT22;9975;48.046;7.804;2023-03-01T11:43:48;8.60;69.70
19654;DHT22;9975;48.046;7.804;2023-03-01T11:46:40;8.00;69.90
19654;DHT22;9975;48.046;7.804;2023-03-01T11:59:58;9.50;68.20
19654;DHT22;9975;48.046;7.804;2023-03-01T12:09:21;10.30;58.20
19654;DHT22;9975;48.046;7.804;2023-03-01T12:15:08;9.90;58.90
19654;DHT22;9975;48.046;7.804;2023-03-01T12:26:10;10.20;53.30
19654;DHT22;9975;48.046;7.804;2023-03-01T12:29:19;10.50;53.10
19654;DHT22;9975;48.046;7.804;2023-03-01T12:32:20;11.10;53.70
19654;DHT22;9975;48.046;7.804;2023-03-01T12:38:08;10.50;51.90
19654;DHT22;9975;48.046;7.804;2023-03-01T12:48:41;11.80;48.50
19654;DHT22;9975;48.046;7.804;2023-03-01T12:51:17;11.40;47.70
19654;DHT22;9975;48.046;7.804;2023-03-01T12:53:49;11.40;48.90
19654;DHT22;9975;48.046;7.804;2023-03-01T12:56:22;11.70;48.60
19654;DHT22;9975;48.046;7.804;2023-03-01T13:11:55;12.20;44.40
19654;DHT22;9975;48.046;7.804;2023-03-01T13:17:32;12.60;43.50
19654;DHT22;9975;48.046;7.804;2023-03-01T13:19:58;11.40;44.50
19654;DHT22;9975;48.046;7.804;2023-03-01T13:22:32;10.80;46.40
19654;DHT22;9975;48.046;7.804;2023-03-01T13:25:11;11.30;46.10
19654;DHT22;9975;48.046;7.804;2023-03-01T13:27:38;11.00;44.70
19654;DHT22;9975;48.046;7.804;2023-03-01T13:30:11;10.70;46.30
19654;DHT22;9975;48.046;7.804;2023-03-01T13:32:50;10.50;46.10
19654;DHT22;9975;48.046;7.804;2023-03-01T13:37:43;11.00;47.10
19654;DHT22;9975;48.046;7.804;2023-03-01T13:42:44;11.10;46.90
19654;DHT22;9975;48.046;7.804;2023-03-01T13:47:59;11.00;45.00
19654;DHT22;9975;48.046;7.804;2023-03-01T13:50:28;10.70;45.30
19654;DHT22;9975;48.046;7.804;2023-03-01T13:53:00;10.70;44.70
19654;DHT22;9975;48.046;7.804;2023-03-01T13:58:33;10.30;45.20
19654;DHT22;9975;48.046;7.804;2023-03-01T14:01:28;10.40;44.50
19654;DHT22;9975;48.046;7.804;2023-03-01T14:03:54;10.30;44.50
19654;DHT22;9975;48.046;7.804;2023-03-01T14:06:28;10.20;44.90
19654;DHT22;9975;48.046;7.804;2023-03-01T14:09:23;10.30;45.20
19654;DHT22;9975;48.046;7.804;2023-03-01T14:14:44;10.20;45.70
19654;DHT22;9975;48.046;7.804;2023-03-01T14:19:36;10.60;46.40
19654;DHT22;9975;48.046;7.804;2023-03-01T14:24:56;10.60;46.70
19654;DHT22;9975;48.046;7.804;2023-03-01T14:27:27;10.50;47.70
19654;DHT22;9975;48.046;7.804;2023-03-01T14:29:56;10.50;48.20
19654;DHT22;9975;48.046;7.804;2023-03-01T14:32:32;10.70;47.60
19654;DHT22;9975;48.046;7.804;2023-03-01T14:34:59;11.20;47.70
19654;DHT22;9975;48.046;7.804;2023-03-01T14:37:32;11.20;46.80
19654;DHT22;9975;48.046;7.804;2023-03-01T14:40:00;11.30;46.80
19654;DHT22;9975;48.046;7.804;2023-03-01T14:42:29;11.30;46.40
19654;DHT22;9975;48.046;7.804;2023-03-01T14:44:56;11.70;46.10
19654;DHT22;9975;48.046;7.804;2023-03-01T14:47:34;11.60;45.60
19654;DHT22;9975;48.046;7.804;2023-03-01T14:52:47;11.10;45.80
19654;DHT22;9975;48.046;7.804;2023-03-01T14:55:23;10.80;46.80
19654;DHT22;9975;48.046;7.804;2023-03-01T14:57:51;10.90;45.70
19654;DHT22;9975;48.046;7.804;2023-03-01T15:00:30;11.00;46.40
19654;DHT22;9975;48.046;7.804;2023-03-01T15:03:04;11.00;46.20
19654;DHT22;9975;48.046;7.804;2023-03-01T15:05:35;10.60;46.70
19654;DHT22;9975;48.046;7.804;2023-03-01T15:08:04;10.20;47.10
19654;DHT22;9975;48.046;7.804;2023-03-01T15:10:35;10.00;47.90
19654;DHT22;9975;48.046;7.804;2023-03-01T15:13:24;9.70;49.10
19654;DHT22;9975;48.046;7.804;2023-03-01T15:15:51;9.60;49.80
19654;DHT22;9975;48.046;7.804;2023-03-01T15:18:26;9.70;49.60
19654;DHT22;9975;48.046;7.804;2023-03-01T15:20:56;9.70;49.60
19654;DHT22;9975;48.046;7.804;2023-03-01T15:23:32;9.70;50.70
19654;DHT22;9975;48.046;7.804;2023-03-01T15:25:57;9.60;50.10
19654;DHT22;9975;48.046;7.804;2023-03-01T15:28:29;10.10;49.30
19654;DHT22;9975;48.046;7.804;2023-03-01T15:31:23;10.10;49.90
19654;DHT22;9975;48.046;7.804;2023-03-01T15:33:51;10.00;48.80
19654;DHT22;9975;48.046;7.804;2023-03-01T15:38:59;9.80;49.30
19654;DHT22;9975;48.046;7.804;2023-03-01T15:41:38;9.30;50.30
19654;DHT22;9975;48.046;7.804;2023-03-01T15:44:23;8.80;50.70
19654;DHT22;9975;48.046;7.804;2023-03-01T15:46:50;8.90;51.40
19654;DHT22;9975;48.046;7.804;2023-03-01T15:49:34;8.90;51.20
19654;DHT22;9975;48.046;7.804;2023-03-01T15:52:01;9.00;51.50
19654;DHT22;9975;48.046;7.804;2023-03-01T15:54:28;9.20;51.30
19654;DHT22;9975;48.046;7.804;2023-03-01T15:56:54;9.20;51.40
19654;DHT22;9975;48.046;7.804;2023-03-01T15:59:20;9.10;50.50
19654;DHT22;9975;48.046;7.804;2023-03-01T16:01:48;8.70;51.50
19654;DHT22;9975;48.046;7.804;2023-03-01T16:04:16;8.60;52.00
19654;DHT22;9975;48.046;7.804;2023-03-01T16:06:53;8.80;51.80
19654;DHT22;9975;48.046;7.804;2023-03-01T16:09:25;8.60;52.10
19654;DHT22;9975;48.046;7.804;2023-03-01T16:11:52;8.50;52.40
19654;DHT22;9975;48.046;7.804;2023-03-01T16:14:18;8.40;52.30
19654;DHT22;9975;48.046;7.804;2023-03-01T16:16:45;8.10;52.90
19654;DHT22;9975;48.046;7.804;2023-03-01T16:19:11;8.60;53.70
19654;DHT22;9975;48.046;7.804;2023-03-01T16:21:37;8.00;52.80
19654;DHT22;9975;48.046;7.804;2023-03-01T16:24:04;7.90;52.80
19654;DHT22;9975;48.046;7.804;2023-03-01T16:26:30;7.90;53.40
19654;DHT22;9975;48.046;7.804;2023-03-01T16:28:56;7.60;53.50
19654;DHT22;9975;48.046;7.804;2023-03-01T16:31:23;7.50;54.20
19654;DHT22;9975;48.046;7.804;2023-03-01T16:33:53;7.50;54.70
19654;DHT22;9975;48.046;7.804;2023-03-01T16:36:20;7.50;54.70
19654;DHT22;9975;48.046;7.804;2023-03-01T16:38:46;7.50;55.10
19654;DHT22;9975;48.046;7.804;2023-03-01T16:41:14;7.30;54.90
19654;DHT22;9975;48.046;7.804;2023-03-01T16:43:41;7.30;54.90
19654;DHT22;9975;48.046;7.804;2023-03-01T16:48:37;7.00;55.50
19654;DHT22;9975;48.046;7.804;2023-03-01T16:51:04;6.90;55.60
19654;DHT22;9975;48.046;7.804;2023-03-01T16:53:30;6.90;56.20
19654;DHT22;9975;48.046;7.804;2023-03-01T16:55:57;6.90;56.50
19654;DHT22;9975;48.046;7.804;2023-03-01T16:58:23;6.80;56.40
19654;DHT22;9975;48.046;7.804;2023-03-01T17:00:51;6.80;56.80
19654;DHT22;9975;48.046;7.804;2023-03-01T17:05:44;6.40;57.10
19654;DHT22;9975;48.046;7.804;2023-03-01T17:08:09;6.40;57.60
19654;DHT22;9975;48.046;7.804;2023-03-01T17:10:35;6.30;57.90
19654;DHT22;9975;48.046;7.804;2023-03-01T17:13:01;6.30;58.40
19654;DHT22;9975;48.046;7.804;2023-03-01T17:15:27;6.40;57.70
19654;DHT22;9975;48.046;7.804;2023-03-01T17:17:53;6.50;57.50
19654;DHT22;9975;48.046;7.804;2023-03-01T17:22:44;6.60;57.20
19654;DHT22;9975;48.046;7.804;2023-03-01T17:25:11;6.60;57.30
19654;DHT22;9975;48.046;7.804;2023-03-01T17:27:38;6.60;56.90
19654;DHT22;9975;48.046;7.804;2023-03-01T17:30:07;6.60;56.80
19654;DHT22;9975;48.046;7.804;2023-03-01T17:32:32;6.60;56.80
19654;DHT22;9975;48.046;7.804;2023-03-01T17:34:58;6.50;56.90
19654;DHT22;9975;48.046;7.804;2023-03-01T17:37:24;6.60;56.80
19654;DHT22;9975;48.046;7.804;2023-03-01T17:42:15;6.50;57.00
19654;DHT22;9975;48.046;7.804;2023-03-01T17:44:46;6.50;57.30
19654;DHT22;9975;48.046;7.804;2023-03-01T17:47:12;6.50;57.10
19654;DHT22;9975;48.046;7.804;2023-03-01T17:49:37;6.50;57.60
19654;DHT22;9975;48.046;7.804;2023-03-01T17:52:03;6.50;57.80
19654;DHT22;9975;48.046;7.804;2023-03-01T17:54:43;3.70;55.90
19654;DHT22;9975;48.046;7.804;2023-03-01T17:57:09;6.40;58.20
19654;DHT22;9975;48.046;7.804;2023-03-01T17:59:36;6.40;58.20
19654;DHT22;9975;48.046;7.804;2023-03-01T18:02:01;6.60;58.70
19654;DHT22;9975;48.046;7.804;2023-03-01T18:04:28;6.00;58.80
19654;DHT22;9975;48.046;7.804;2023-03-01T18:07:05;6.10;59.40
19654;DHT22;9975;48.046;7.804;2023-03-01T18:09:31;6.00;58.60
19654;DHT22;9975;48.046;7.804;2023-03-01T18:11:57;6.00;58.90
19654;DHT22;9975;48.046;7.804;2023-03-01T18:14:23;6.00;60.00
19654;DHT22;9975;48.046;7.804;2023-03-01T18:16:49;6.10;61.30
19654;DHT22;9975;48.046;7.804;2023-03-01T18:19:14;5.40;61.80
19654;DHT22;9975;48.046;7.804;2023-03-01T18:21:40;5.30;62.40
19654;DHT22;9975;48.046;7.804;2023-03-01T18:24:07;5.30;62.50
19654;DHT22;9975;48.046;7.804;2023-03-01T18:26:32;5.10;63.20
19654;DHT22;9975;48.046;7.804;2023-03-01T18:28:58;5.10;63.90
19654;DHT22;9975;48.046;7.804;2023-03-01T18:31:25;5.00;64.10
19654;DHT22;9975;48.046;7.804;2023-03-01T18:33:52;5.20;65.00
19654;DHT22;9975;48.046;7.804;2023-03-01T18:36:45;4.90;64.90
19654;DHT22;9975;48.046;7.804;2023-03-01T18:39:11;4.70;64.90
19654;DHT22;9975;48.046;7.804;2023-03-01T18:41:39;4.70;66.50
19654;DHT22;9975;48.046;7.804;2023-03-01T18:44:04;4.60;66.00
19654;DHT22;9975;48.046;7.804;2023-03-01T18:46:32;5.00;66.90
19654;DHT22;9975;48.046;7.804;2023-03-01T18:48:57;4.50;66.70
19654;DHT22;9975;48.046;7.804;2023-03-01T18:51:27;4.50;66.00
19654;DHT22;9975;48.046;7.804;2023-03-01T18:53:54;5.30;67.60
19654;DHT22;9975;48.046;7.804;2023-03-01T18:56:20;4.40;66.80
19654;DHT22;9975;48.046;7.804;2023-03-01T18:58:46;4.40;67.20
19654;DHT22;9975;48.046;7.804;2023-03-01T19:01:23;4.50;67.70
19654;DHT22;9975;48.046;7.804;2023-03-01T19:03:50;4.30;68.20
19654;DHT22;9975;48.046;7.804;2023-03-01T19:06:16;4.30;68.10
19654;DHT22;9975;48.046;7.804;2023-03-01T19:08:58;4.50;67.60
19654;DHT22;9975;48.046;7.804;2023-03-01T19:11:23;4.50;68.00
19654;DHT22;9975;48.046;7.804;2023-03-01T19:13:52;4.20;68.00
19654;DHT22;9975;48.046;7.804;2023-03-01T19:16:23;5.10;69.60
19654;DHT22;9975;48.046;7.804;2023-03-01T19:18:55;5.70;70.50
19654;DHT22;9975;48.046;7.804;2023-03-01T19:21:24;4.70;69.70
19654;DHT22;9975;48.046;7.804;2023-03-01T19:23:50;4.30;69.50
19654;DHT22;9975;48.046;7.804;2023-03-01T19:26:19;5.00;70.20
19654;DHT22;9975;48.046;7.804;2023-03-01T19:28:46;4.30;69.70
19654;DHT22;9975;48.046;7.804;2023-03-01T19:31:16;4.30;69.50
19654;DHT22;9975;48.046;7.804;2023-03-01T19:33:43;3.70;70.50
19654;DHT22;9975;48.046;7.804;2023-03-01T19:36:11;3.70;71.00
19654;DHT22;9975;48.046;7.804;2023-03-01T19:38:38;3.60;71.80
19654;DHT22;9975;48.046;7.804;2023-03-01T19:41:08;4.30;73.20
19654;DHT22;9975;48.046;7.804;2023-03-01T19:43:35;3.50;73.00
19654;DHT22;9975;48.046;7.804;2023-03-01T19:46:01;3.50;73.20
19654;DHT22;9975;48.046;7.804;2023-03-01T19:48:27;3.50;73.10
19654;DHT22;9975;48.046;7.804;2023-03-01T19:50:56;3.40;73.90
19654;DHT22;9975;48.046;7.804;2023-03-01T19:53:25;3.40;74.00
19654;DHT22;9975;48.046;7.804;2023-03-01T19:55:56;3.40;73.30
19654;DHT22;9975;48.046;7.804;2023-03-01T19:58:24;3.50;73.70
19654;DHT22;9975;48.046;7.804;2023-03-01T20:00:49;3.40;73.90
19654;DHT22;9975;48.046;7.804;2023-03-01T20:03:24;3.30;74.40
19654;DHT22;9975;48.046;7.804;2023-03-01T20:05:50;3.40;74.20
19654;DHT22;9975;48.046;7.804;2023-03-01T20:08:16;3.40;74.70
19654;DHT22;9975;48.046;7.804;2023-03-01T20:10:42;3.40;75.30
19654;DHT22;9975;48.046;7.804;2023-03-01T20:13:07;3.70;75.90
19654;DHT22;9975;48.046;7.804;2023-03-01T20:15:33;2.50;74.90
19654;DHT22;9975;48.046;7.804;2023-03-01T20:17:59;3.30;75.80
19654;DHT22;9975;48.046;7.804;2023-03-01T20:20:24;3.30;76.30